createdAt,value
2016-07-04T00:00:13.209Z,9.03
2016-07-04T00:01:12.877Z,9.05
2016-07-04T00:02:13.849Z,9.05
2016-07-04T00:03:12.927Z,9.03
2016-07-04T00:04:13.078Z,9.03
2016-07-04T00:05:12.853Z,9.01
2016-07-04T00:06:12.853Z,9.04
2016-07-04T00:07:13.627Z,8.98
2016-07-04T00:08:13.114Z,8.94
2016-07-04T00:09:12.955Z,9.01
2016-07-04T00:10:12.898Z,9.01
2016-07-04T00:11:13.103Z,9.05
2016-07-04T00:12:12.827Z,9.03
2016-07-04T00:13:12.797Z,9.03
2016-07-04T00:14:13.118Z,8.95
2016-07-04T00:15:13.126Z,8.85
2016-07-04T00:16:12.802Z,9.05
2016-07-04T00:17:12.984Z,8.92
2016-07-04T00:18:12.791Z,8.92
2016-07-04T00:19:13.060Z,8.77
2016-07-04T00:20:12.974Z,8.85
2016-07-04T00:21:12.763Z,8.85
2016-07-04T00:22:13.014Z,8.87
2016-07-04T00:23:12.890Z,8.86
2016-07-04T00:24:12.828Z,8.92
2016-07-04T00:25:13.390Z,8.82
2016-07-04T00:26:12.903Z,8.83
2016-07-04T00:27:12.966Z,8.82
2016-07-04T00:28:12.727Z,8.94
2016-07-04T00:29:12.637Z,8.89
2016-07-04T00:30:12.639Z,8.87
2016-07-04T00:31:12.638Z,8.76
2016-07-04T00:32:12.682Z,8.68
2016-07-04T00:33:12.936Z,8.72
2016-07-04T00:34:12.922Z,8.69
2016-07-04T00:35:12.941Z,8.69
2016-07-04T00:36:12.589Z,8.65
2016-07-04T00:37:12.809Z,8.72
2016-07-04T00:38:12.845Z,8.57
2016-07-04T00:39:12.713Z,8.72
2016-07-04T00:40:12.930Z,8.62
2016-07-04T00:41:12.773Z,8.57
2016-07-04T00:42:12.700Z,8.44
2016-07-04T00:43:12.578Z,8.43
2016-07-04T00:44:12.849Z,8.4
2016-07-04T00:45:12.597Z,8.49
2016-07-04T00:46:12.823Z,8.42
2016-07-04T00:47:12.877Z,8.31
2016-07-04T00:48:12.733Z,8.28
2016-07-04T00:49:12.782Z,8.31
2016-07-04T00:50:12.733Z,8.31
2016-07-04T00:51:12.540Z,8.21
2016-07-04T00:52:12.479Z,8.17
2016-07-04T00:53:12.505Z,8.26
2016-07-04T00:54:12.688Z,8.22
2016-07-04T00:55:12.661Z,8.25
2016-07-04T00:56:12.577Z,8.26
2016-07-04T00:57:12.530Z,8.25
2016-07-04T00:58:12.474Z,8.28
2016-07-04T00:59:12.736Z,8.25
2016-07-04T01:00:12.492Z,8.26
2016-07-04T01:01:12.443Z,8.39
2016-07-04T01:02:13.061Z,8.36
2016-07-04T01:03:12.440Z,8.26
2016-07-04T01:04:12.663Z,8.29
2016-07-04T01:05:12.397Z,8.25
2016-07-04T01:06:12.716Z,8.31
2016-07-04T01:07:12.619Z,8.28
2016-07-04T01:08:12.619Z,8.29
2016-07-04T01:09:12.402Z,8.25
2016-07-04T01:10:12.543Z,8.21
2016-07-04T01:11:12.517Z,8.22
2016-07-04T01:12:12.508Z,8.22
2016-07-04T01:13:12.382Z,8.06
2016-07-04T01:14:12.545Z,8.14
2016-07-04T01:15:12.368Z,8.16
2016-07-04T01:16:12.345Z,8.06
2016-07-04T01:17:12.364Z,8.09
2016-07-04T01:18:12.311Z,8.16
2016-07-04T01:19:12.226Z,8.24
2016-07-04T01:20:12.271Z,8.03
2016-07-04T01:21:12.366Z,8.1
2016-07-04T01:22:12.270Z,8.22
2016-07-04T01:23:12.269Z,8.19
2016-07-04T01:24:12.258Z,8.06
2016-07-04T01:25:12.231Z,8.21
2016-07-04T01:26:12.171Z,8.24
2016-07-04T01:27:12.424Z,8.1
2016-07-04T01:28:12.232Z,8.16
2016-07-04T01:29:12.255Z,8.14
2016-07-04T01:30:12.207Z,8.19
2016-07-04T01:31:12.196Z,8.21
2016-07-04T01:32:12.423Z,8.26
2016-07-04T01:33:12.435Z,8.04
2016-07-04T01:34:12.456Z,8.04
2016-07-04T01:35:12.141Z,8.16
2016-07-04T01:36:12.152Z,8.09
2016-07-04T01:37:12.134Z,8.1
2016-07-04T01:38:12.105Z,8.06
2016-07-04T01:39:12.111Z,8.03
2016-07-04T01:40:12.062Z,7.93
2016-07-04T01:41:12.279Z,7.96
2016-07-04T01:42:12.089Z,7.98
2016-07-04T01:43:12.094Z,8.03
2016-07-04T01:44:12.405Z,8.03
2016-07-04T01:45:12.311Z,7.96
2016-07-04T01:46:12.043Z,7.95
2016-07-04T01:47:12.037Z,7.95
2016-07-04T01:48:12.094Z,7.96
2016-07-04T01:49:12.029Z,8.04
2016-07-04T01:50:12.040Z,7.99
2016-07-04T01:51:12.003Z,7.95
2016-07-04T01:52:12.265Z,7.83
2016-07-04T01:53:12.009Z,7.8
2016-07-04T01:54:11.955Z,7.75
2016-07-04T01:55:12.015Z,7.59
2016-07-04T01:56:12.217Z,7.63
2016-07-04T01:57:11.882Z,7.59
2016-07-04T01:58:11.935Z,7.56
2016-07-04T01:59:11.860Z,7.58
2016-07-04T02:00:11.884Z,7.58
2016-07-04T02:01:11.967Z,7.63
2016-07-04T02:02:11.921Z,7.63
2016-07-04T02:03:11.905Z,7.59
2016-07-04T02:04:11.957Z,7.59
2016-07-04T02:05:11.817Z,7.64
2016-07-04T02:06:11.870Z,7.77
2016-07-04T02:07:11.845Z,7.8
2016-07-04T02:08:11.788Z,7.71
2016-07-04T02:09:12.078Z,7.68
2016-07-04T02:10:11.780Z,7.78
2016-07-04T02:11:11.976Z,7.78
2016-07-04T02:12:11.760Z,7.78
2016-07-04T02:13:11.955Z,7.83
2016-07-04T02:14:12.724Z,7.77
2016-07-04T02:15:11.995Z,7.71
2016-07-04T02:16:12.089Z,7.59
2016-07-04T02:17:12.122Z,7.58
2016-07-04T02:18:11.833Z,7.61
2016-07-04T02:19:11.757Z,7.48
2016-07-04T02:20:11.775Z,7.49
2016-07-04T02:21:11.733Z,7.41
2016-07-04T02:22:11.928Z,7.48
2016-07-04T02:23:11.721Z,7.51
2016-07-04T02:24:11.752Z,7.4
2016-07-04T02:25:11.697Z,7.41
2016-07-04T02:26:11.879Z,7.31
2016-07-04T02:27:11.714Z,7.34
2016-07-04T02:28:11.932Z,7.3
2016-07-04T02:29:11.669Z,7.27
2016-07-04T02:30:11.659Z,7.22
2016-07-04T02:31:11.791Z,7.22
2016-07-04T02:32:11.882Z,7.19
2016-07-04T02:33:11.628Z,7.16
2016-07-04T02:34:11.851Z,7.19
2016-07-04T02:35:11.936Z,7.18
2016-07-04T02:36:11.676Z,7.13
2016-07-04T02:37:11.715Z,7.04
2016-07-04T02:38:11.867Z,7.03
2016-07-04T02:39:11.656Z,7.05
2016-07-04T02:40:11.731Z,7.08
2016-07-04T02:41:11.893Z,6.97
2016-07-04T02:42:11.472Z,7.04
2016-07-04T02:43:11.462Z,7.04
2016-07-04T02:44:11.649Z,7.03
2016-07-04T02:45:11.446Z,6.94
2016-07-04T02:46:11.592Z,6.91
2016-07-04T02:47:11.502Z,6.86
2016-07-04T02:48:11.460Z,6.9
2016-07-04T02:49:12.105Z,6.95
2016-07-04T02:50:11.477Z,6.98
2016-07-04T02:51:11.620Z,7.03
2016-07-04T02:52:11.715Z,6.98
2016-07-04T02:53:11.371Z,7.01
2016-07-04T02:54:11.417Z,7.08
2016-07-04T02:55:11.580Z,7.16
2016-07-04T02:56:11.600Z,7.21
2016-07-04T02:57:11.390Z,7.29
2016-07-04T02:58:11.386Z,7.3
2016-07-04T02:59:11.389Z,7.3
2016-07-04T03:00:11.489Z,7.33
2016-07-04T03:01:11.434Z,7.37
2016-07-04T03:02:11.388Z,7.4
2016-07-04T03:03:11.277Z,7.44
2016-07-04T03:04:11.562Z,7.33
2016-07-04T03:05:11.542Z,7.44
2016-07-04T03:06:11.604Z,7.41
2016-07-04T03:07:11.290Z,7.49
2016-07-04T03:08:11.286Z,7.47
2016-07-04T03:09:11.466Z,7.41
2016-07-04T03:10:11.463Z,7.45
2016-07-04T03:11:11.264Z,7.45
2016-07-04T03:12:11.336Z,7.52
2016-07-04T03:13:11.228Z,7.4
2016-07-04T03:14:11.960Z,7.45
2016-07-04T03:15:11.202Z,7.48
2016-07-04T03:16:11.274Z,7.51
2016-07-04T03:17:11.249Z,7.44
2016-07-04T03:18:11.155Z,7.48
2016-07-04T03:19:11.164Z,7.54
2016-07-04T03:20:11.365Z,7.47
2016-07-04T03:21:11.260Z,7.51
2016-07-04T03:22:11.097Z,7.51
2016-07-04T03:23:11.177Z,7.49
2016-07-04T03:24:11.365Z,7.49
2016-07-04T03:25:11.219Z,7.47
2016-07-04T03:26:11.446Z,7.55
2016-07-04T03:27:11.173Z,7.48
2016-07-04T03:28:11.160Z,7.41
2016-07-04T03:29:11.136Z,7.4
2016-07-04T03:30:11.064Z,7.48
2016-07-04T03:31:11.883Z,7.51
2016-07-04T03:32:11.048Z,7.34
2016-07-04T03:33:11.054Z,7.36
2016-07-04T03:34:11.039Z,7.36
2016-07-04T03:35:11.008Z,7.36
2016-07-04T03:36:11.218Z,7.39
2016-07-04T03:37:11.275Z,7.4
2016-07-04T03:38:11.209Z,7.39
2016-07-04T03:39:11.196Z,7.48
2016-07-04T03:40:11.221Z,7.41
2016-07-04T03:41:10.961Z,7.51
2016-07-04T03:42:10.951Z,7.51
2016-07-04T03:43:10.932Z,7.51
2016-07-04T03:44:10.910Z,7.45
2016-07-04T03:45:11.095Z,7.49
2016-07-04T03:46:11.064Z,7.49
2016-07-04T03:47:10.889Z,7.45
2016-07-04T03:48:10.876Z,7.51
2016-07-04T03:49:10.888Z,7.49
2016-07-04T03:50:10.881Z,7.51
2016-07-04T03:51:10.876Z,7.44
2016-07-04T03:52:11.928Z,7.45
2016-07-04T03:53:11.197Z,7.37
2016-07-04T03:54:11.120Z,7.45
2016-07-04T03:55:10.843Z,7.39
2016-07-04T03:56:10.983Z,7.39
2016-07-04T03:57:11.097Z,7.47
2016-07-04T03:58:11.129Z,7.56
2016-07-04T03:59:11.036Z,7.63
2016-07-04T04:00:11.721Z,7.59
2016-07-04T04:01:11.056Z,7.68
2016-07-04T04:02:10.763Z,7.58
2016-07-04T04:03:10.922Z,7.77
2016-07-04T04:04:10.920Z,7.77
2016-07-04T04:05:11.007Z,7.83
2016-07-04T04:06:10.864Z,7.82
2016-07-04T04:07:10.984Z,7.83
2016-07-04T04:08:10.989Z,7.83
2016-07-04T04:09:10.887Z,7.85
2016-07-04T04:10:10.704Z,7.8
2016-07-04T04:11:10.892Z,7.77
2016-07-04T04:12:10.726Z,7.83
2016-07-04T04:13:10.783Z,7.75
2016-07-04T04:14:10.943Z,7.8
2016-07-04T04:15:10.943Z,7.77
2016-07-04T04:16:10.941Z,7.85
2016-07-04T04:17:10.852Z,7.77
2016-07-04T04:18:10.825Z,7.8
2016-07-04T04:19:10.871Z,7.77
2016-07-04T04:20:10.882Z,7.88
2016-07-04T04:21:10.864Z,7.77
2016-07-04T04:22:10.777Z,7.77
2016-07-04T04:23:10.577Z,7.86
2016-07-04T04:24:10.562Z,7.83
2016-07-04T04:25:10.833Z,7.83
2016-07-04T04:26:10.785Z,8.03
2016-07-04T04:27:10.656Z,8.06
2016-07-04T04:28:10.533Z,8.09
2016-07-04T04:29:10.794Z,8.14
2016-07-04T04:30:10.544Z,8.14
2016-07-04T04:31:10.513Z,8.1
2016-07-04T04:32:10.739Z,8.13
2016-07-04T04:33:10.474Z,8.14
2016-07-04T04:34:10.747Z,8.16
2016-07-04T04:35:10.475Z,8.07
2016-07-04T04:36:10.731Z,8.21
2016-07-04T04:37:10.425Z,8.11
2016-07-04T04:38:10.668Z,8.24
2016-07-04T04:39:10.413Z,8.24
2016-07-04T04:40:10.429Z,8.19
2016-07-04T04:41:10.419Z,8.16
2016-07-04T04:42:10.396Z,8.22
2016-07-04T04:43:10.895Z,8.28
2016-07-04T04:44:10.585Z,8.29
2016-07-04T04:45:10.376Z,8.29
2016-07-04T04:46:10.466Z,8.4
2016-07-04T04:47:10.373Z,8.4
2016-07-04T04:48:10.360Z,8.4
2016-07-04T04:49:10.359Z,8.47
2016-07-04T04:50:10.610Z,8.53
2016-07-04T04:51:10.329Z,8.52
2016-07-04T04:52:10.314Z,8.69
2016-07-04T04:53:10.281Z,8.74
2016-07-04T04:54:10.306Z,8.71
2016-07-04T04:55:10.302Z,8.8
2016-07-04T04:56:10.406Z,8.85
2016-07-04T04:57:10.274Z,9.03
2016-07-04T04:58:10.607Z,8.98
2016-07-04T04:59:10.266Z,9.01
2016-07-04T05:00:10.455Z,9.11
2016-07-04T05:01:10.434Z,9.2
2016-07-04T05:02:10.243Z,9.29
2016-07-04T05:03:10.230Z,9.44
2016-07-04T05:04:10.502Z,9.55
2016-07-04T05:05:10.479Z,9.67
2016-07-04T05:06:10.399Z,9.75
2016-07-04T05:07:10.526Z,9.85
2016-07-04T05:08:10.179Z,9.96
2016-07-04T05:09:10.174Z,10.02
2016-07-04T05:10:10.439Z,10.15
2016-07-04T05:11:10.188Z,10.29
2016-07-04T05:12:10.410Z,10.36
2016-07-04T05:13:10.164Z,10.57
2016-07-04T05:14:10.393Z,10.61
2016-07-04T05:15:10.165Z,10.66
2016-07-04T05:16:10.401Z,10.88
2016-07-04T05:17:10.153Z,10.88
2016-07-04T05:18:10.128Z,11.05
2016-07-04T05:19:10.344Z,11.18
2016-07-04T05:20:10.419Z,11.27
2016-07-04T05:21:10.346Z,11.45
2016-07-04T05:22:10.174Z,11.59
2016-07-04T05:23:10.067Z,11.7
2016-07-04T05:24:10.347Z,11.82
2016-07-04T05:25:10.273Z,11.78
2016-07-04T05:26:10.053Z,12.01
2016-07-04T05:27:10.312Z,12.19
2016-07-04T05:28:10.039Z,12.33
2016-07-04T05:29:10.014Z,12.44
2016-07-04T05:30:10.052Z,12.61
2016-07-04T05:31:10.303Z,12.74
2016-07-04T05:32:10.430Z,12.83
2016-07-04T05:33:10.012Z,12.89
2016-07-04T05:34:10.253Z,12.92
2016-07-04T05:35:10.111Z,13.09
2016-07-04T05:36:10.118Z,13.09
2016-07-04T05:37:10.915Z,13.07
2016-07-04T05:38:10.685Z,13.09
2016-07-04T05:39:11.717Z,13.28
2016-07-04T05:40:10.271Z,13.2
2016-07-04T05:41:09.973Z,13.27
2016-07-04T05:42:09.958Z,13.37
2016-07-04T05:43:10.172Z,13.37
2016-07-04T05:44:10.190Z,13.35
2016-07-04T05:45:10.138Z,13.37
2016-07-04T05:46:10.110Z,13.35
2016-07-04T05:47:09.908Z,13.39
2016-07-04T05:48:10.195Z,13.42
2016-07-04T05:49:12.288Z,13.5
2016-07-04T05:50:10.728Z,13.45
2016-07-04T05:51:10.171Z,13.47
2016-07-04T05:52:10.491Z,13.4
2016-07-04T05:53:10.207Z,13.39
2016-07-04T05:54:09.937Z,13.27
2016-07-04T05:55:09.879Z,13.36
2016-07-04T05:56:10.190Z,13.28
2016-07-04T05:57:09.901Z,13.21
2016-07-04T05:58:10.189Z,13.24
2016-07-04T05:59:10.216Z,13.1
2016-07-04T06:00:10.163Z,13.06
2016-07-04T06:01:09.856Z,13.01
2016-07-04T06:02:10.133Z,12.94
2016-07-04T06:03:10.096Z,12.92
2016-07-04T06:04:09.916Z,12.94
2016-07-04T06:05:10.118Z,12.95
2016-07-04T06:06:09.827Z,12.83
2016-07-04T06:07:09.876Z,12.89
2016-07-04T06:08:10.639Z,12.91
2016-07-04T06:09:09.839Z,12.98
2016-07-04T06:10:10.612Z,12.92
2016-07-04T06:11:10.091Z,12.89
2016-07-04T06:12:09.986Z,12.94
2016-07-04T06:13:09.761Z,12.88
2016-07-04T06:14:10.115Z,12.92
2016-07-04T06:15:10.080Z,12.96
2016-07-04T06:16:09.970Z,12.92
2016-07-04T06:17:10.017Z,12.92
2016-07-04T06:18:10.686Z,12.92
2016-07-04T06:19:10.017Z,12.98
2016-07-04T06:20:09.780Z,12.91
2016-07-04T06:21:09.724Z,12.84
2016-07-04T06:22:10.000Z,12.83
2016-07-04T06:23:09.796Z,12.8
2016-07-04T06:24:09.941Z,12.78
2016-07-04T06:25:09.956Z,12.84
2016-07-04T06:26:10.429Z,12.83
2016-07-04T06:27:10.682Z,12.81
2016-07-04T06:28:09.739Z,12.78
2016-07-04T06:29:10.530Z,12.8
2016-07-04T06:30:09.968Z,12.83
2016-07-04T06:31:09.993Z,12.88
2016-07-04T06:32:09.729Z,12.95
2016-07-04T06:33:09.946Z,12.92
2016-07-04T06:34:10.092Z,12.92
2016-07-04T06:35:10.898Z,12.98
2016-07-04T06:36:09.872Z,13.01
2016-07-04T06:37:09.968Z,13.07
2016-07-04T06:38:09.666Z,13.13
2016-07-04T06:39:10.540Z,13.16
2016-07-04T06:40:09.663Z,13.11
2016-07-04T06:41:09.927Z,13.17
2016-07-04T06:42:09.831Z,13.16
2016-07-04T06:43:09.712Z,13.09
2016-07-04T06:44:09.651Z,13.07
2016-07-04T06:45:09.634Z,13.03
2016-07-04T06:46:09.631Z,13.09
2016-07-04T06:47:10.537Z,13.27
2016-07-04T06:48:09.617Z,13.42
2016-07-04T06:49:09.634Z,13.7
2016-07-04T06:50:10.549Z,14.02
2016-07-04T06:51:09.774Z,14.24
2016-07-04T06:52:09.692Z,14.52
2016-07-04T06:53:10.175Z,14.94
2016-07-04T06:55:09.868Z,15.93
2016-07-04T06:56:10.348Z,16.7
2016-07-04T06:57:10.054Z,17.58
2016-07-04T06:58:09.646Z,18.17
2016-07-04T07:00:09.754Z,19.6
2016-07-04T07:01:09.595Z,20.46
2016-07-04T07:02:09.570Z,21.16
2016-07-04T07:03:09.862Z,21.78
2016-07-04T07:04:09.730Z,22.3
2016-07-04T07:05:09.710Z,22.71
2016-07-04T07:06:09.603Z,23.21
2016-07-04T07:07:09.566Z,23.66
2016-07-04T07:08:09.772Z,24.19
2016-07-04T07:09:09.760Z,24.59
2016-07-04T07:10:09.622Z,25.12
2016-07-04T07:11:09.783Z,25.51
2016-07-04T07:12:09.841Z,25.97
2016-07-04T07:14:09.802Z,26.89
2016-07-04T07:15:10.374Z,27.3
2016-07-04T07:16:09.589Z,27.76
2016-07-04T07:17:09.848Z,28.05
2016-07-04T07:18:09.781Z,28.35
2016-07-04T07:20:10.049Z,28.86
2016-07-04T07:21:09.815Z,28.94
2016-07-04T07:22:09.577Z,29.13
2016-07-04T07:23:10.368Z,29.1
2016-07-04T07:24:10.120Z,29.32
2016-07-04T07:25:09.630Z,29.63
2016-07-04T07:26:10.269Z,29.87
2016-07-04T07:27:09.596Z,30.03
2016-07-04T07:28:09.830Z,30.21
2016-07-04T07:29:09.783Z,30.45
2016-07-04T07:30:09.863Z,30.52
2016-07-04T07:31:10.102Z,30.64
2016-07-04T07:32:10.370Z,30.85
2016-07-04T07:33:09.930Z,30.85
2016-07-04T07:34:09.846Z,30.63
2016-07-04T07:35:09.670Z,30.4
2016-07-04T07:36:09.868Z,30.21
2016-07-04T07:37:09.932Z,30.28
2016-07-04T07:38:09.671Z,30.54
2016-07-04T07:39:09.951Z,30.66
2016-07-04T07:40:09.708Z,30.84
2016-07-04T07:41:09.724Z,31.01
2016-07-04T07:42:10.004Z,31.26
2016-07-04T07:43:10.083Z,31.4
2016-07-04T07:44:09.956Z,31.67
2016-07-04T07:45:09.981Z,31.81
2016-07-04T07:46:09.962Z,32.01
2016-07-04T07:47:09.982Z,31.98
2016-07-04T07:48:10.045Z,32
2016-07-04T07:49:10.009Z,32.08
2016-07-04T07:50:10.453Z,32.27
2016-07-04T07:51:09.773Z,32.3
2016-07-04T07:52:10.002Z,32.16
2016-07-04T07:53:09.842Z,32.03
2016-07-04T07:54:09.794Z,32.01
2016-07-04T07:55:10.757Z,32
2016-07-04T07:56:09.823Z,32.17
2016-07-04T07:57:09.870Z,32.24
2016-07-04T07:58:10.148Z,32.2
2016-07-04T07:59:10.043Z,32.39
2016-07-04T08:00:11.094Z,32.62
2016-07-04T08:01:10.977Z,32.54
2016-07-04T08:02:10.829Z,32.46
2016-07-04T08:03:10.647Z,32.5
2016-07-04T08:04:10.650Z,32.47
2016-07-04T08:05:10.677Z,32.42
2016-07-04T08:06:10.224Z,32.38
2016-07-04T08:07:10.875Z,32.39
2016-07-04T08:08:09.997Z,32.1
2016-07-04T08:09:10.141Z,32.03
2016-07-04T08:10:10.910Z,31.86
2016-07-04T08:11:10.221Z,31.44
2016-07-04T08:12:10.250Z,31.53
2016-07-04T08:13:10.357Z,31.7
2016-07-04T08:14:10.329Z,31.62
2016-07-04T08:15:10.910Z,31.43
2016-07-04T08:16:10.098Z,31.23
2016-07-04T08:17:09.981Z,31.07
2016-07-04T08:18:10.018Z,31.1
2016-07-04T08:19:10.159Z,31.26
2016-07-04T08:20:10.219Z,31.3
2016-07-04T08:21:10.277Z,31.38
2016-07-04T08:22:10.095Z,31.22
2016-07-04T08:23:10.046Z,31.13
2016-07-04T08:24:10.993Z,31.01
2016-07-04T08:25:10.442Z,30.64
2016-07-04T08:26:11.759Z,30.39
2016-07-04T08:27:10.819Z,30
2016-07-04T08:28:10.186Z,29.69
2016-07-04T08:29:10.217Z,29.35
2016-07-04T08:30:10.111Z,28.94
2016-07-04T08:31:11.167Z,28.45
2016-07-04T08:32:10.813Z,27.9
2016-07-04T08:33:10.363Z,27.36
2016-07-04T08:34:10.181Z,26.67
2016-07-04T08:35:10.363Z,26.06
2016-07-04T08:36:11.051Z,25.47
2016-07-04T08:37:10.939Z,24.96
2016-07-04T08:38:10.755Z,24.56
2016-07-04T08:39:10.410Z,24.04
2016-07-04T08:40:11.612Z,23.48
2016-07-04T08:41:10.165Z,23.16
2016-07-04T08:42:11.159Z,22.85
2016-07-04T08:43:10.556Z,22.7
2016-07-04T08:44:10.844Z,22.2
2016-07-04T08:45:10.977Z,21.9
2016-07-04T08:46:14.272Z,21.46
2016-07-04T08:47:11.646Z,21.33
2016-07-04T08:48:20.186Z,21.15
2016-07-04T08:52:13.281Z,20.9
2016-07-04T08:53:10.320Z,20.86
2016-07-04T08:54:12.281Z,20.85
2016-07-04T08:55:10.383Z,20.83
2016-07-04T08:56:31.506Z,20.81
2016-07-04T08:57:41.144Z,20.74
2016-07-04T08:58:31.590Z,20.75
2016-07-04T08:59:26.651Z,20.75
2016-07-04T09:00:10.317Z,20.83
2016-07-04T09:26:02.065Z,19.63
2016-07-04T09:27:01.981Z,19.5
2016-07-04T09:28:01.944Z,19.28
2016-07-04T09:29:02.272Z,18.99
2016-07-04T09:30:02.626Z,18.72
2016-07-04T09:31:03.542Z,18.84
2016-07-04T09:32:03.309Z,18.89
2016-07-04T09:33:02.596Z,19
2016-07-04T09:34:02.163Z,19.13
2016-07-04T09:35:02.276Z,19.43
2016-07-04T09:36:01.944Z,19.5
2016-07-04T09:37:17.441Z,19.55
2016-07-04T09:38:17.628Z,19.63
2016-07-04T09:39:17.664Z,19.63
2016-07-04T09:40:17.537Z,19.78
2016-07-04T09:41:02.636Z,19.7
2016-07-04T09:42:03.065Z,19.79
2016-07-04T09:43:03.647Z,19.83
2016-07-04T09:44:03.528Z,19.85
2016-07-04T09:45:03.757Z,19.79
2016-07-04T09:46:02.753Z,19.74
2016-07-04T09:47:03.311Z,19.47
2016-07-04T09:48:03.289Z,19.3
2016-07-04T09:50:02.887Z,18.89
2016-07-04T09:51:03.398Z,18.68
2016-07-04T09:52:03.445Z,18.53
2016-07-04T09:53:04.411Z,18.66
2016-07-04T09:54:02.560Z,18.76
2016-07-04T09:55:17.548Z,18.89
2016-07-04T09:56:04.027Z,18.96
2016-07-04T09:57:02.863Z,19.15
2016-07-04T09:58:03.978Z,19.52
2016-07-04T09:59:03.678Z,19.61
2016-07-04T10:00:03.958Z,19.98
2016-07-04T10:01:02.993Z,20.2
2016-07-04T10:03:03.226Z,20.57
2016-07-04T10:04:03.070Z,20.74
2016-07-04T10:05:02.652Z,20.76
2016-07-04T10:06:02.972Z,20.68
2016-07-04T10:07:03.333Z,20.63
2016-07-04T10:08:03.316Z,20.4
2016-07-04T10:09:31.906Z,20.12
2016-07-04T10:10:03.466Z,20.08
2016-07-04T10:11:03.001Z,20.1
2016-07-04T10:12:03.173Z,20.01
2016-07-04T10:13:17.257Z,19.98
2016-07-04T10:14:03.867Z,19.93
2016-07-04T10:15:03.487Z,20.04
2016-07-04T10:16:04.487Z,20.12
2016-07-04T10:17:04.453Z,20.26
2016-07-04T10:18:17.830Z,20.27
2016-07-04T10:19:31.664Z,20.34
2016-07-04T10:20:03.640Z,20.23
2016-07-04T10:21:17.959Z,20.27
2016-07-04T10:22:03.877Z,20.29
2016-07-04T10:24:17.577Z,20.51
2016-07-04T10:25:03.869Z,20.42
2016-07-04T10:26:18.010Z,20.51
2016-07-04T10:27:03.740Z,20.56
2016-07-04T10:28:03.917Z,20.51
2016-07-04T10:29:03.959Z,20.41
2016-07-04T10:30:17.808Z,20.4
2016-07-04T10:31:18.194Z,20.16
2016-07-04T10:32:04.160Z,20.15
2016-07-04T10:33:03.830Z,20.04
2016-07-04T10:34:03.725Z,20.04
2016-07-04T10:35:03.837Z,20.04
2016-07-04T10:37:04.159Z,20.07
2016-07-04T10:38:03.325Z,20.01
2016-07-04T10:39:03.811Z,20.01
2016-07-04T10:40:04.058Z,20.04
2016-07-04T10:41:03.599Z,20.08
2016-07-04T10:42:18.388Z,20.11
2016-07-04T10:43:03.518Z,20.16
2016-07-04T10:44:03.349Z,20.25
2016-07-04T10:45:17.935Z,20.18
2016-07-04T10:46:32.749Z,20.23
2016-07-04T10:48:17.895Z,20.32
2016-07-04T10:50:03.715Z,20.3
2016-07-04T10:52:03.603Z,20.27
2016-07-04T10:53:04.712Z,20.27
2016-07-04T10:54:04.398Z,20.37
2016-07-04T10:55:04.514Z,20.35
2016-07-04T10:56:02.298Z,20.32
2016-07-04T10:57:18.308Z,20.44
2016-07-04T10:58:03.260Z,20.53
2016-07-04T11:00:03.731Z,20.83
2016-07-04T11:01:03.884Z,20.83
2016-07-04T11:02:17.504Z,21.03
2016-07-04T11:03:04.524Z,21.12
2016-07-04T11:04:03.767Z,21.27
2016-07-04T11:05:04.018Z,21.18
2016-07-04T11:07:03.726Z,21.22
2016-07-04T11:08:17.707Z,21.15
2016-07-04T11:09:31.803Z,21.15
2016-07-04T11:10:03.580Z,21.12
2016-07-04T11:11:02.915Z,21.09
2016-07-04T11:12:04.000Z,21.09
2016-07-04T11:13:03.875Z,21.11
2016-07-04T11:14:03.347Z,21.08
2016-07-04T11:15:02.905Z,21.15
2016-07-04T11:16:02.973Z,21.19
2016-07-04T11:17:03.948Z,21.21
2016-07-04T11:18:04.647Z,21.25
2016-07-04T11:19:05.132Z,21.31
2016-07-04T11:20:04.356Z,21.37
2016-07-04T11:21:04.699Z,21.38
2016-07-04T11:22:18.178Z,21.38
2016-07-04T11:24:18.003Z,21.7
2016-07-04T11:25:03.990Z,21.64
2016-07-04T11:26:04.217Z,21.66
2016-07-04T11:27:03.110Z,21.71
2016-07-04T11:28:18.607Z,21.66
2016-07-04T11:29:04.084Z,21.58
2016-07-04T11:30:04.460Z,21.45
2016-07-04T11:31:03.612Z,21.41
2016-07-04T11:32:04.363Z,21.41
2016-07-04T11:33:03.914Z,21.28
2016-07-04T11:34:04.206Z,21.23
2016-07-04T11:35:04.241Z,21.31
2016-07-04T11:37:06.045Z,21.34
2016-07-04T11:39:03.973Z,21.41
2016-07-04T11:40:04.667Z,21.4
2016-07-04T11:41:03.625Z,21.34
2016-07-04T11:42:02.853Z,21.36
2016-07-04T11:43:17.675Z,21.36
2016-07-04T11:44:03.483Z,21.34
2016-07-04T11:45:04.360Z,21.41
2016-07-04T11:46:04.254Z,21.31
2016-07-04T11:47:04.558Z,21.34
2016-07-04T11:49:04.563Z,21.27
2016-07-04T11:50:03.569Z,21.19
2016-07-04T11:51:03.888Z,21.21
2016-07-04T11:53:04.641Z,21.09
2016-07-04T11:54:18.404Z,21
2016-07-04T11:56:03.085Z,20.96
2016-07-04T11:57:03.761Z,20.91
2016-07-04T11:58:17.908Z,20.98
2016-07-04T11:59:02.974Z,21
2016-07-04T12:00:03.958Z,20.9
2016-07-04T12:02:04.208Z,20.72
2016-07-04T12:03:03.884Z,20.71
2016-07-04T12:04:04.547Z,20.74
2016-07-04T12:05:03.580Z,20.74
2016-07-04T12:06:03.964Z,20.82
2016-07-04T12:07:32.106Z,20.88
2016-07-04T12:10:17.824Z,20.98
2016-07-04T12:11:18.509Z,21.08
2016-07-04T12:12:18.099Z,21.18
2016-07-04T12:13:04.917Z,21.28
2016-07-04T12:14:17.888Z,21.37
2016-07-04T12:15:03.818Z,21.34
2016-07-04T12:16:18.314Z,21.53
2016-07-04T12:17:02.696Z,21.49
2016-07-04T12:18:17.129Z,21.61
2016-07-04T12:19:03.182Z,21.45
2016-07-04T12:20:17.638Z,21.48
2016-07-04T12:21:17.936Z,21.48
2016-07-04T12:22:16.807Z,21.49
2016-07-04T12:23:03.898Z,21.49
2016-07-04T12:24:17.931Z,21.46
2016-07-04T12:26:17.815Z,21.66
2016-07-04T12:28:03.280Z,21.78
2016-07-04T12:29:04.356Z,21.82
2016-07-04T12:30:03.607Z,21.92
2016-07-04T12:33:03.916Z,21.96
2016-07-04T12:35:03.860Z,21.99
2016-07-04T12:36:18.095Z,21.9
2016-07-04T12:37:05.392Z,21.82
2016-07-04T12:38:04.510Z,21.61
2016-07-04T12:39:03.832Z,21.58
2016-07-04T12:40:05.175Z,21.41
2016-07-04T12:41:02.177Z,21.41
2016-07-04T12:43:03.996Z,21.4
2016-07-04T12:44:18.735Z,21.4
2016-07-04T12:46:05.040Z,21.21
2016-07-04T12:48:17.292Z,21.21
2016-07-04T12:49:18.047Z,21.13
2016-07-04T12:50:05.918Z,21.01
2016-07-04T12:51:04.403Z,21
2016-07-04T12:52:18.169Z,20.83
2016-07-04T12:55:07.009Z,21.21
2016-07-04T12:56:04.516Z,21.31
2016-07-04T12:58:03.093Z,21.56
2016-07-04T12:59:04.121Z,21.74
2016-07-04T13:00:02.794Z,21.82
2016-07-04T13:01:03.247Z,21.96
2016-07-04T13:02:17.834Z,22.11
2016-07-04T13:03:03.562Z,22.11
2016-07-04T13:04:03.823Z,22.11
2016-07-04T13:05:04.142Z,22.11
2016-07-04T13:06:04.408Z,22.08
2016-07-04T13:07:04.310Z,22.11
2016-07-04T13:08:05.225Z,21.99
2016-07-04T13:09:05.150Z,22.04
2016-07-04T13:10:03.921Z,21.93
2016-07-04T13:11:04.225Z,21.94
2016-07-04T13:13:04.518Z,21.85
2016-07-04T13:14:04.487Z,21.83
2016-07-04T13:15:04.523Z,21.64
2016-07-04T13:16:18.555Z,21.49
2016-07-04T13:17:03.565Z,21.46
2016-07-04T13:20:17.843Z,21.43
2016-07-04T13:21:17.938Z,21.3
2016-07-04T13:22:18.544Z,21.45
2016-07-04T13:23:04.479Z,21.23
2016-07-04T13:24:17.899Z,21.23
2016-07-04T13:25:04.732Z,21.18
2016-07-04T13:28:42.914Z,21.27
2016-07-04T13:29:41.933Z,21.34
2016-07-04T13:30:28.703Z,21.45
2016-07-04T13:31:42.714Z,21.38
2016-07-04T13:32:55.364Z,21.51
2016-07-04T13:33:27.955Z,21.55
2016-07-04T13:34:28.477Z,21.43
2016-07-04T13:35:27.589Z,21.41
2016-07-04T13:36:29.088Z,21.37
2016-07-04T13:37:28.316Z,21.27
2016-07-04T13:38:27.823Z,21.21
2016-07-04T13:39:27.963Z,21.21
2016-07-04T13:40:27.651Z,21.04
2016-07-04T13:41:29.411Z,20.98
2016-07-04T13:42:42.072Z,20.96
2016-07-04T13:44:27.743Z,20.68
2016-07-04T13:45:27.560Z,20.57
2016-07-04T13:47:42.415Z,20.48
2016-07-04T13:48:41.030Z,20.42
2016-07-04T13:49:27.395Z,20.41
2016-07-04T13:50:27.077Z,20.34
2016-07-04T13:51:41.143Z,20.23
2016-07-04T13:53:28.400Z,20.16
2016-07-04T13:55:41.875Z,20.01
2016-07-04T13:57:27.175Z,19.97
2016-07-04T13:59:28.064Z,19.86
2016-07-04T14:00:26.323Z,19.8
2016-07-04T14:01:27.510Z,19.72
2016-07-04T14:02:41.739Z,19.87
2016-07-04T14:03:28.206Z,20.02
2016-07-04T14:04:27.423Z,20.08
2016-07-04T14:05:27.636Z,20.26
2016-07-04T14:06:27.678Z,20.42
2016-07-04T14:07:42.067Z,20.54
2016-07-04T14:08:28.116Z,20.57
2016-07-04T14:10:41.541Z,20.79
2016-07-04T14:11:41.488Z,20.88
2016-07-04T14:12:27.943Z,21.01
2016-07-04T14:16:28.687Z,20.9
2016-07-04T14:17:28.479Z,20.82
2016-07-04T14:18:28.400Z,20.74
2016-07-04T14:21:42.408Z,20.3
2016-07-04T14:22:27.007Z,20.3
2016-07-04T14:23:28.335Z,20.12